createdAt,value
2019-06-10T00:00:12.697Z,75.87
2019-06-10T00:01:06.552Z,75.96
2019-06-10T00:02:05.427Z,76.44
2019-06-10T00:03:05.612Z,76.15
2019-06-10T00:04:07.969Z,76.64
2019-06-10T00:05:05.587Z,76.59
2019-06-10T00:06:05.292Z,76.88
2019-06-10T00:07:05.418Z,77.17
2019-06-10T00:08:05.417Z,76.59
2019-06-10T00:09:06.434Z,77.08
2019-06-10T00:10:04.520Z,77.65
2019-06-10T00:11:05.065Z,77.08
2019-06-10T00:12:04.759Z,77.17
2019-06-10T00:13:05.381Z,77.26
2019-06-10T00:14:05.699Z,77.65
2019-06-10T00:15:04.907Z,77.94
2019-06-10T00:16:05.068Z,78.03
2019-06-10T00:17:05.069Z,77.75
2019-06-10T00:18:26.634Z,78.13
2019-06-10T00:19:06.834Z,77.84
2019-06-10T00:20:05.415Z,77.56
2019-06-10T00:21:05.530Z,77.94
2019-06-10T00:22:05.337Z,78.13
2019-06-10T00:23:05.633Z,78.61
2019-06-10T00:24:05.667Z,78.61
2019-06-10T00:25:05.793Z,78.61
2019-06-10T00:26:07.334Z,79.28
2019-06-10T00:27:06.781Z,78.90
2019-06-10T00:28:05.734Z,79.67
2019-06-10T00:29:05.834Z,79.57
2019-06-10T00:30:06.491Z,79.57
2019-06-10T00:31:05.692Z,79.96
2019-06-10T00:32:06.516Z,80.34
2019-06-10T00:33:05.895Z,80.58
2019-06-10T00:34:06.203Z,80.49
2019-06-10T00:35:05.012Z,81.26
2019-06-10T00:36:06.995Z,81.26
2019-06-10T00:37:06.344Z,81.07
2019-06-10T00:38:07.224Z,81.54
2019-06-10T00:39:05.622Z,81.07
2019-06-10T00:40:05.893Z,81.26
2019-06-10T00:41:07.218Z,81.93
2019-06-10T00:42:07.541Z,82.03
2019-06-10T00:43:05.698Z,82.03
2019-06-10T00:44:05.629Z,82.60
2019-06-10T00:45:07.339Z,82.31
2019-06-10T00:46:06.209Z,82.51
2019-06-10T00:47:06.964Z,82.98
2019-06-10T00:48:17.612Z,83.27
2019-06-10T00:49:07.528Z,83.37
2019-06-10T00:50:07.280Z,83.94
2019-06-10T00:51:06.092Z,83.56
2019-06-10T00:52:06.196Z,84.14
2019-06-10T00:53:05.911Z,84.04
2019-06-10T00:54:06.327Z,83.94
2019-06-10T00:55:06.481Z,84.23
2019-06-10T00:56:06.712Z,84.33
2019-06-10T00:57:05.558Z,84.14
2019-06-10T00:58:05.770Z,84.81
2019-06-10T00:59:05.846Z,84.81
2019-06-10T01:00:15.894Z,85.38
2019-06-10T01:01:06.008Z,84.81
2019-06-10T01:02:06.500Z,85.10
2019-06-10T01:03:06.012Z,84.81
2019-06-10T01:04:06.877Z,85.10
2019-06-10T01:05:05.184Z,85.58
2019-06-10T01:06:06.399Z,85.58
2019-06-10T01:07:06.426Z,85.58
2019-06-10T01:08:06.591Z,86.05
2019-06-10T01:09:06.634Z,85.77
2019-06-10T01:10:05.283Z,85.38
2019-06-10T01:11:10.476Z,85.77
2019-06-10T01:12:05.341Z,86.40
2019-06-10T01:13:05.351Z,86.15
2019-06-10T01:14:05.372Z,86.25
2019-06-10T01:15:05.396Z,86.40
2019-06-10T01:16:05.490Z,86.40
2019-06-10T01:17:05.530Z,86.40
2019-06-10T01:18:05.582Z,86.15
2019-06-10T01:19:05.747Z,86.88
2019-06-10T01:20:05.836Z,86.21
2019-06-10T01:21:05.870Z,86.49
2019-06-10T01:22:06.026Z,86.82
2019-06-10T01:23:05.557Z,86.78
2019-06-10T01:24:05.580Z,87.11
2019-06-10T01:25:05.602Z,87.26
2019-06-10T01:26:05.773Z,86.88
2019-06-10T01:27:05.652Z,87.45
2019-06-10T01:28:05.722Z,87.45
2019-06-10T01:29:05.740Z,87.55
2019-06-10T01:30:10.225Z,87.64
2019-06-10T01:31:09.660Z,87.64
2019-06-10T01:32:05.747Z,88.12
2019-06-10T01:33:06.296Z,88.12
2019-06-10T01:34:05.794Z,88.31
2019-06-10T01:35:06.533Z,88.22
2019-06-10T01:36:05.833Z,88.41
2019-06-10T01:37:06.781Z,88.51
2019-06-10T01:38:05.940Z,88.98
2019-06-10T01:39:06.909Z,89.18
2019-06-10T01:40:06.070Z,89.08
2019-06-10T01:41:06.130Z,88.79
2019-06-10T01:42:06.180Z,88.60
2019-06-10T01:43:06.341Z,88.60
2019-06-10T01:44:06.468Z,88.98
2019-06-10T01:45:06.525Z,89.08
2019-06-10T01:46:06.619Z,88.79
2019-06-10T01:47:06.696Z,89.08
2019-06-10T01:48:08.757Z,89.27
2019-06-10T01:49:06.974Z,89.65
2019-06-10T01:50:06.992Z,89.65
2019-06-10T01:51:07.122Z,90.04
2019-06-10T01:52:07.249Z,89.75
2019-06-10T01:53:07.305Z,90.04
2019-06-10T01:54:07.378Z,89.94
2019-06-10T01:55:07.477Z,89.47
2019-06-10T01:56:07.643Z,90.04
2019-06-10T01:57:06.273Z,89.75
2019-06-10T01:58:06.292Z,89.80
2019-06-10T01:59:06.316Z,90.00
2019-06-10T02:00:11.946Z,90.09
2019-06-10T02:01:06.356Z,90.23
2019-06-10T02:02:06.384Z,90.19
2019-06-10T02:03:06.401Z,90.00
2019-06-10T02:04:06.421Z,90.47
2019-06-10T02:05:06.441Z,90.57
2019-06-10T02:06:06.463Z,90.52
2019-06-10T02:07:06.482Z,90.47
2019-06-10T02:08:06.504Z,90.67
2019-06-10T02:09:06.544Z,90.76
2019-06-10T02:10:06.545Z,90.38
2019-06-10T02:11:06.565Z,90.47
2019-06-10T02:12:06.586Z,90.67
2019-06-10T02:13:06.609Z,90.86
2019-06-10T02:14:06.636Z,90.76
2019-06-10T02:15:06.652Z,90.47
2019-06-10T02:16:06.674Z,90.67
2019-06-10T02:17:06.694Z,90.47
2019-06-10T02:18:06.711Z,90.76
2019-06-10T02:19:06.732Z,90.67
2019-06-10T02:20:06.756Z,90.95
2019-06-10T02:21:06.785Z,90.67
2019-06-10T02:22:06.800Z,90.86
2019-06-10T02:23:06.824Z,91.24
2019-06-10T02:24:06.843Z,90.76
2019-06-10T02:25:06.857Z,91.05
2019-06-10T02:26:06.887Z,91.24
2019-06-10T02:27:06.900Z,91.24
2019-06-10T02:28:06.926Z,90.86
2019-06-10T02:29:06.947Z,91.24
2019-06-10T02:30:14.919Z,91.24
2019-06-10T02:31:06.984Z,91.14
2019-06-10T02:32:07.008Z,91.05
2019-06-10T02:33:07.028Z,91.24
2019-06-10T02:34:07.051Z,90.95
2019-06-10T02:35:14.240Z,91.05
2019-06-10T02:36:07.087Z,91.24
2019-06-10T02:37:07.111Z,91.05
2019-06-10T02:38:07.130Z,91.19
2019-06-10T02:39:07.153Z,91.43
2019-06-10T02:40:07.188Z,91.24
2019-06-10T02:41:07.191Z,91.24
2019-06-10T02:42:07.219Z,91.24
2019-06-10T02:43:07.235Z,90.95
2019-06-10T02:44:07.257Z,91.14
2019-06-10T02:45:07.282Z,91.72
2019-06-10T02:46:07.299Z,91.72
2019-06-10T02:47:07.320Z,91.48
2019-06-10T02:48:08.258Z,91.72
2019-06-10T02:49:24.804Z,91.72
2019-06-10T02:50:08.978Z,91.53
2019-06-10T02:51:07.401Z,91.43
2019-06-10T02:52:07.433Z,91.63
2019-06-10T02:53:07.444Z,91.63
2019-06-10T02:54:07.470Z,91.63
2019-06-10T02:55:07.487Z,91.43
2019-06-10T02:56:07.507Z,91.43
2019-06-10T02:57:07.529Z,91.34
2019-06-10T02:58:07.545Z,91.43
2019-06-10T02:59:07.575Z,91.43
2019-06-10T03:00:20.028Z,91.24
2019-06-10T03:01:07.611Z,91.82
2019-06-10T03:02:07.643Z,91.43
2019-06-10T03:03:07.653Z,91.34
2019-06-10T03:04:07.672Z,91.82
2019-06-10T03:05:07.702Z,91.72
2019-06-10T03:06:08.787Z,91.53
2019-06-10T03:07:07.735Z,91.91
2019-06-10T03:08:07.772Z,91.72
2019-06-10T03:09:07.781Z,91.53
2019-06-10T03:10:07.797Z,91.91
2019-06-10T03:11:07.825Z,92.30
2019-06-10T03:12:07.840Z,91.82
2019-06-10T03:13:07.859Z,92.10
2019-06-10T03:14:07.887Z,91.63
2019-06-10T03:15:07.908Z,91.91
2019-06-10T03:16:07.920Z,92.01
2019-06-10T03:17:07.945Z,91.91
2019-06-10T03:18:07.963Z,92.39
2019-06-10T03:19:07.985Z,92.30
2019-06-10T03:20:08.004Z,92.39
2019-06-10T03:21:08.032Z,92.49
2019-06-10T03:22:08.044Z,92.20
2019-06-10T03:23:08.068Z,91.91
2019-06-10T03:24:08.087Z,92.87
2019-06-10T03:25:08.107Z,92.01
2019-06-10T03:26:08.133Z,92.01
2019-06-10T03:27:08.155Z,92.20
2019-06-10T03:28:08.172Z,92.01
2019-06-10T03:29:08.192Z,92.30
2019-06-10T03:30:15.397Z,92.49
2019-06-10T03:31:08.236Z,92.49
2019-06-10T03:32:08.263Z,92.30
2019-06-10T03:33:08.275Z,92.10
2019-06-10T03:34:08.306Z,92.39
2019-06-10T03:35:08.317Z,92.30
2019-06-10T03:36:08.336Z,92.39
2019-06-10T03:37:08.362Z,92.30
2019-06-10T03:38:08.384Z,92.39
2019-06-10T03:39:08.403Z,91.91
2019-06-10T03:40:08.417Z,91.82
2019-06-10T03:41:08.441Z,91.53
2019-06-10T03:42:08.461Z,91.63
2019-06-10T03:43:08.481Z,91.72
2019-06-10T03:44:08.502Z,91.82
2019-06-10T03:45:08.631Z,91.91
2019-06-10T03:46:08.541Z,91.72
2019-06-10T03:47:08.571Z,92.24
2019-06-10T03:48:08.584Z,91.72
2019-06-10T03:49:08.604Z,91.82
2019-06-10T03:50:08.626Z,91.53
2019-06-10T03:51:08.647Z,92.39
2019-06-10T03:52:08.669Z,91.91
2019-06-10T03:53:08.689Z,91.82
2019-06-10T03:54:08.717Z,92.49
2019-06-10T03:55:08.731Z,92.39
2019-06-10T03:56:08.755Z,92.30
2019-06-10T03:57:08.773Z,92.20
2019-06-10T03:58:08.793Z,91.63
2019-06-10T03:59:08.812Z,92.34
2019-06-10T04:00:13.145Z,92.34
2019-06-10T04:01:08.863Z,92.34
2019-06-10T04:02:08.875Z,92.30
2019-06-10T04:03:08.898Z,91.96
2019-06-10T04:04:08.928Z,92.54
2019-06-10T04:05:08.938Z,92.39
2019-06-10T04:06:08.960Z,92.20
2019-06-10T04:07:08.979Z,92.20
2019-06-10T04:08:09.003Z,92.97
2019-06-10T04:09:09.021Z,92.97
2019-06-10T04:10:09.044Z,92.39
2019-06-10T04:11:09.063Z,92.68
2019-06-10T04:12:09.084Z,92.58
2019-06-10T04:13:09.107Z,92.49
2019-06-10T04:14:09.126Z,92.49
2019-06-10T04:15:09.148Z,92.87
2019-06-10T04:16:09.170Z,92.87
2019-06-10T04:17:09.199Z,92.68
2019-06-10T04:18:09.209Z,92.68
2019-06-10T04:19:09.232Z,92.77
2019-06-10T04:20:13.219Z,92.77
2019-06-10T04:21:09.274Z,93.06
2019-06-10T04:22:09.296Z,93.63
2019-06-10T04:23:09.313Z,93.16
2019-06-10T04:24:09.337Z,93.06
2019-06-10T04:25:09.358Z,92.77
2019-06-10T04:26:09.382Z,92.97
2019-06-10T04:27:09.397Z,93.54
2019-06-10T04:28:09.420Z,92.97
2019-06-10T04:29:09.442Z,92.97
2019-06-10T04:30:09.460Z,92.87
2019-06-10T04:31:09.489Z,92.49
2019-06-10T04:32:09.505Z,92.77
2019-06-10T04:33:09.527Z,92.63
2019-06-10T04:34:09.545Z,92.91
2019-06-10T04:35:09.569Z,92.82
2019-06-10T04:36:09.586Z,92.91
2019-06-10T04:37:09.609Z,92.63
2019-06-10T04:38:09.627Z,92.54
2019-06-10T04:39:09.651Z,92.72
2019-06-10T04:40:09.671Z,92.82
2019-06-10T04:41:09.693Z,92.82
2019-06-10T04:42:09.714Z,92.82
2019-06-10T04:43:09.734Z,92.82
2019-06-10T04:44:09.760Z,92.44
2019-06-10T04:45:12.223Z,92.63
2019-06-10T04:46:09.795Z,92.72
2019-06-10T04:47:11.945Z,92.82
2019-06-10T04:48:12.287Z,92.63
2019-06-10T04:49:09.862Z,92.54
2019-06-10T04:50:24.091Z,92.24
2019-06-10T04:51:09.902Z,92.54
2019-06-10T04:52:12.149Z,92.68
2019-06-10T04:53:09.952Z,92.63
2019-06-10T04:54:09.970Z,93.16
2019-06-10T04:55:09.984Z,92.97
2019-06-10T04:56:12.108Z,93.16
2019-06-10T04:57:10.034Z,93.59
2019-06-10T04:58:10.054Z,93.49
2019-06-10T04:59:12.330Z,93.01
2019-06-10T05:00:12.099Z,92.63
2019-06-10T05:01:12.127Z,93.40
2019-06-10T05:02:12.663Z,92.72
2019-06-10T05:03:12.136Z,92.54
2019-06-10T05:04:12.330Z,92.54
2019-06-10T05:05:10.200Z,92.72
2019-06-10T05:06:12.290Z,92.72
2019-06-10T05:07:12.464Z,92.63
2019-06-10T05:08:10.261Z,92.91
2019-06-10T05:09:12.332Z,92.72
2019-06-10T05:10:12.369Z,92.87
2019-06-10T05:11:12.636Z,93.44
2019-06-10T05:12:12.127Z,93.49
2019-06-10T05:13:12.033Z,93.16
2019-06-10T05:14:13.034Z,93.35
2019-06-10T05:15:12.537Z,93.54
2019-06-10T05:16:12.522Z,93.26
2019-06-10T05:17:12.608Z,93.54
2019-06-10T05:18:13.026Z,93.83
2019-06-10T05:19:12.643Z,93.78
2019-06-10T05:20:12.510Z,93.40
2019-06-10T05:21:12.839Z,93.30
2019-06-10T05:22:12.371Z,93.40
2019-06-10T05:23:12.550Z,93.49
2019-06-10T05:24:12.503Z,93.40
2019-06-10T05:25:12.681Z,93.30
2019-06-10T05:26:13.049Z,93.30
2019-06-10T05:27:12.514Z,93.49
2019-06-10T05:28:12.303Z,93.49
2019-06-10T05:29:12.145Z,93.40
2019-06-10T05:30:12.257Z,93.49
2019-06-10T05:31:12.967Z,93.59
2019-06-10T05:32:12.745Z,93.49
2019-06-10T05:33:10.795Z,92.82
2019-06-10T05:34:12.878Z,92.72
2019-06-10T05:35:12.357Z,92.54
2019-06-10T05:36:12.848Z,92.96
2019-06-10T05:37:12.105Z,92.63
2019-06-10T05:38:12.865Z,92.68
2019-06-10T05:39:12.189Z,92.77
2019-06-10T05:40:12.802Z,92.48
2019-06-10T05:41:13.082Z,92.48
2019-06-10T05:42:12.764Z,92.29
2019-06-10T05:43:12.901Z,91.91
2019-06-10T05:44:13.220Z,91.81
2019-06-10T05:45:12.268Z,91.62
2019-06-10T05:46:13.150Z,91.81
2019-06-10T05:47:12.632Z,91.62
2019-06-10T05:48:16.078Z,92.19
2019-06-10T05:49:12.517Z,91.91
2019-06-10T05:50:12.864Z,92.00
2019-06-10T05:51:12.402Z,92.39
2019-06-10T05:52:12.618Z,92.00
2019-06-10T05:53:13.110Z,92.10
2019-06-10T05:54:12.788Z,91.81
2019-06-10T05:55:12.162Z,91.42
2019-06-10T05:56:12.897Z,90.95
2019-06-10T05:57:12.063Z,91.62
2019-06-10T05:58:12.886Z,91.19
2019-06-10T05:59:12.106Z,90.61
2019-06-10T06:00:14.802Z,90.13
2019-06-10T06:01:13.183Z,90.13
2019-06-10T06:02:12.864Z,89.94
2019-06-10T06:03:12.050Z,89.94
2019-06-10T06:04:12.693Z,90.13
2019-06-10T06:05:12.851Z,90.32
2019-06-10T06:06:12.500Z,90.13
2019-06-10T06:07:12.896Z,90.37
2019-06-10T06:08:12.536Z,89.89
2019-06-10T06:09:12.929Z,89.31
2019-06-10T06:10:13.008Z,89.31
2019-06-10T06:11:12.741Z,88.93
2019-06-10T06:12:14.154Z,88.73
2019-06-10T06:13:12.667Z,89.02
2019-06-10T06:14:13.248Z,88.93
2019-06-10T06:15:12.975Z,89.12
2019-06-10T06:16:12.562Z,89.02
2019-06-10T06:17:12.727Z,88.49
2019-06-10T06:18:14.001Z,87.92
2019-06-10T06:19:12.608Z,87.62
2019-06-10T06:20:13.300Z,86.47
2019-06-10T06:21:25.345Z,86.22
2019-06-10T06:22:12.955Z,85.94
2019-06-10T06:23:12.344Z,85.84
2019-06-10T06:24:12.889Z,85.94
2019-06-10T06:25:15.172Z,86.42
2019-06-10T06:26:16.382Z,86.57
2019-06-10T06:27:13.086Z,86.61
2019-06-10T06:28:12.902Z,86.85
2019-06-10T06:29:12.987Z,86.95
2019-06-10T06:30:17.739Z,87.24
2019-06-10T06:31:12.742Z,87.72
2019-06-10T06:32:13.231Z,87.43
2019-06-10T06:33:13.703Z,87.82
2019-06-10T06:34:13.856Z,87.53
2019-06-10T06:35:12.647Z,87.05
2019-06-10T06:36:12.619Z,88.59
2019-06-10T06:37:12.740Z,88.30
2019-06-10T06:38:13.009Z,88.30
2019-06-10T06:39:12.921Z,88.30
2019-06-10T06:40:13.268Z,88.30
2019-06-10T06:41:13.655Z,87.92
2019-06-10T06:42:12.699Z,88.10
2019-06-10T06:43:12.323Z,89.26
2019-06-10T06:44:12.965Z,89.16
2019-06-10T06:45:12.373Z,89.93
2019-06-10T06:46:12.977Z,88.97
2019-06-10T06:47:13.225Z,89.36
2019-06-10T06:48:12.482Z,88.73
2019-06-10T06:49:12.952Z,88.82
2019-06-10T06:50:13.021Z,88.63
2019-06-10T06:51:13.079Z,88.53
2019-06-10T06:52:12.901Z,88.15
2019-06-10T06:53:27.792Z,87.57
2019-06-10T06:54:12.758Z,87.57
2019-06-10T06:55:12.897Z,87.19
2019-06-10T06:56:12.819Z,87.23
2019-06-10T06:57:13.121Z,86.56
2019-06-10T06:58:12.675Z,86.94
2019-06-10T06:59:13.335Z,86.36
2019-06-10T07:00:37.354Z,86.65
2019-06-10T07:01:14.700Z,87.04
2019-06-10T07:02:12.761Z,86.56
2019-06-10T07:03:12.789Z,86.65
2019-06-10T07:04:13.105Z,86.65
2019-06-10T07:05:12.839Z,86.56
2019-06-10T07:06:13.267Z,85.36
2019-06-10T07:07:13.257Z,85.31
2019-06-10T07:08:13.231Z,85.40
2019-06-10T07:09:13.718Z,85.40
2019-06-10T07:10:12.948Z,84.54
2019-06-10T07:11:13.359Z,83.29
2019-06-10T07:12:13.126Z,83.33
2019-06-10T07:13:13.069Z,82.56
2019-06-10T07:14:13.528Z,81.79
2019-06-10T07:15:13.074Z,82.08
2019-06-10T07:16:13.306Z,81.60
2019-06-10T07:17:13.114Z,81.75
2019-06-10T07:18:13.226Z,81.75
2019-06-10T07:19:13.362Z,81.94
2019-06-10T07:20:13.183Z,82.61
2019-06-10T07:21:13.350Z,82.42
2019-06-10T07:22:16.148Z,82.14
2019-06-10T07:23:13.256Z,82.23
2019-06-10T07:24:13.288Z,82.42
2019-06-10T07:25:13.306Z,82.61
2019-06-10T07:26:13.334Z,82.32
2019-06-10T07:27:13.349Z,82.52
2019-06-10T07:28:13.376Z,82.90
2019-06-10T07:29:13.443Z,82.75
2019-06-10T07:30:15.092Z,82.75
2019-06-10T07:31:23.290Z,82.65
2019-06-10T07:32:13.468Z,81.54
2019-06-10T07:33:13.497Z,81.25
2019-06-10T07:34:13.514Z,81.79
2019-06-10T07:35:13.546Z,81.50
2019-06-10T07:36:13.560Z,81.70
2019-06-10T07:37:13.586Z,81.40
2019-06-10T07:38:13.615Z,81.60
2019-06-10T07:39:13.633Z,81.83
2019-06-10T07:40:13.658Z,80.68
2019-06-10T07:41:13.695Z,80.10
2019-06-10T07:42:13.725Z,79.81
2019-06-10T07:43:13.728Z,80.10
2019-06-10T07:44:13.750Z,80.38
2019-06-10T07:45:13.774Z,80.38
2019-06-10T07:46:13.802Z,80.58
2019-06-10T07:47:13.833Z,80.29
2019-06-10T07:48:13.850Z,80.77
2019-06-10T07:49:13.871Z,80.00
2019-06-10T07:50:13.894Z,80.19
2019-06-10T07:51:13.918Z,80.10
2019-06-10T07:52:19.522Z,79.66
2019-06-10T07:53:13.973Z,80.19
2019-06-10T07:54:13.990Z,80.10
2019-06-10T07:55:14.019Z,79.90
2019-06-10T07:56:14.045Z,79.94
2019-06-10T07:57:14.064Z,79.94
2019-06-10T07:58:14.087Z,80.23
2019-06-10T07:59:14.110Z,79.66
2019-06-10T08:00:14.135Z,79.94
2019-06-10T08:01:14.159Z,79.94
2019-06-10T08:02:14.184Z,79.46
2019-06-10T08:03:14.208Z,79.17
2019-06-10T08:04:14.230Z,78.02
2019-06-10T08:05:14.255Z,77.58
2019-06-10T08:06:14.279Z,77.48
2019-06-10T08:07:14.301Z,77.53
2019-06-10T08:08:14.330Z,77.34
2019-06-10T08:09:14.354Z,77.09
2019-06-10T08:10:14.374Z,77.44
2019-06-10T08:11:14.398Z,77.53
2019-06-10T08:12:14.425Z,77.48
2019-06-10T08:13:14.448Z,77.34
2019-06-10T08:14:14.479Z,77.19
2019-06-10T08:15:14.503Z,76.13
2019-06-10T08:16:14.521Z,75.36
2019-06-10T08:17:14.545Z,75.26
2019-06-10T08:18:14.576Z,75.49
2019-06-10T08:19:30.257Z,74.82
2019-06-10T08:20:14.620Z,74.62
2019-06-10T08:21:14.643Z,75.40
2019-06-10T08:22:29.916Z,76.23
2019-06-10T08:23:14.694Z,77.09
2019-06-10T08:24:14.717Z,77.00
2019-06-10T08:25:14.745Z,76.90
2019-06-10T08:26:14.769Z,76.51
2019-06-10T08:27:14.798Z,75.45
2019-06-10T08:28:14.815Z,76.03
2019-06-10T08:29:14.842Z,75.65
2019-06-10T08:30:22.618Z,76.13
2019-06-10T08:31:14.889Z,75.55
2019-06-10T08:32:14.922Z,75.16
2019-06-10T08:33:14.947Z,75.49
2019-06-10T08:34:14.962Z,75.36
2019-06-10T08:35:14.987Z,75.74
2019-06-10T08:36:15.017Z,75.20
2019-06-10T08:37:15.037Z,74.88
2019-06-10T08:38:15.066Z,74.52
2019-06-10T08:39:15.923Z,74.05
2019-06-10T08:40:15.117Z,73.66
2019-06-10T08:41:15.135Z,73.57
2019-06-10T08:42:15.161Z,73.47
2019-06-10T08:43:15.192Z,73.95
2019-06-10T08:44:15.215Z,73.66
2019-06-10T08:45:15.233Z,72.89
2019-06-10T08:46:15.257Z,72.12
2019-06-10T08:47:15.288Z,73.33
2019-06-10T08:48:15.309Z,74.01
2019-06-10T08:49:15.337Z,74.58
2019-06-10T08:50:15.358Z,74.97
2019-06-10T08:51:15.382Z,75.20
2019-06-10T08:52:15.407Z,75.20
2019-06-10T08:53:34.637Z,74.62
2019-06-10T08:54:15.456Z,74.24
2019-06-10T08:55:15.481Z,73.57
2019-06-10T08:56:15.503Z,73.75
2019-06-10T08:57:15.537Z,71.96
2019-06-10T08:58:15.556Z,71.19
2019-06-10T08:59:15.583Z,71.09
2019-06-10T09:00:18.601Z,71.32
2019-06-10T09:01:15.628Z,70.90
2019-06-10T09:02:15.653Z,71.77
2019-06-10T09:03:15.677Z,72.60
2019-06-10T09:04:15.703Z,73.18
2019-06-10T09:05:15.730Z,72.50
2019-06-10T09:06:15.753Z,72.31
2019-06-10T09:07:15.785Z,72.25
2019-06-10T09:08:15.801Z,71.61
2019-06-10T09:09:15.832Z,71.22
2019-06-10T09:10:16.199Z,70.39
2019-06-10T09:11:15.903Z,68.84
2019-06-10T09:12:28.852Z,68.94
2019-06-10T09:13:15.928Z,68.94
2019-06-10T09:14:15.950Z,68.75
2019-06-10T09:15:15.977Z,68.75
2019-06-10T09:16:19.363Z,68.36
2019-06-10T09:17:16.026Z,68.17
2019-06-10T09:18:19.983Z,68.46
2019-06-10T09:19:16.076Z,67.97
2019-06-10T09:20:16.102Z,67.78
2019-06-10T09:21:16.125Z,67.69
2019-06-10T09:22:16.150Z,67.97
2019-06-10T09:23:22.079Z,68.46
2019-06-10T09:24:16.206Z,68.71
2019-06-10T09:25:16.227Z,69.49
2019-06-10T09:26:16.251Z,70.45
2019-06-10T09:27:16.277Z,71.32
2019-06-10T09:28:16.302Z,70.94
2019-06-10T09:29:16.327Z,71.32
2019-06-10T09:30:16.355Z,70.94
2019-06-10T09:31:16.414Z,70.20
2019-06-10T09:32:16.411Z,69.71
2019-06-10T09:33:16.430Z,68.98
2019-06-10T09:34:16.456Z,69.52
2019-06-10T09:35:16.492Z,68.84
2019-06-10T09:36:16.505Z,68.68
2019-06-10T09:37:16.533Z,68.84
2019-06-10T09:38:16.751Z,69.71
2019-06-10T09:39:16.580Z,69.71
2019-06-10T09:40:16.607Z,70.39
2019-06-10T09:41:16.632Z,70.68
2019-06-10T09:42:16.692Z,69.42
2019-06-10T09:43:16.686Z,68.98
2019-06-10T09:44:17.036Z,69.04
2019-06-10T09:45:16.742Z,68.78
2019-06-10T09:46:16.757Z,68.68
2019-06-10T09:47:16.783Z,67.82
2019-06-10T09:48:16.811Z,67.40
2019-06-10T09:49:16.834Z,67.52
2019-06-10T09:50:16.858Z,67.43
2019-06-10T09:51:16.884Z,67.33
2019-06-10T09:52:16.913Z,67.14
2019-06-10T09:53:30.206Z,67.88
2019-06-10T09:54:16.969Z,68.46
2019-06-10T09:55:16.986Z,68.75
2019-06-10T09:56:17.011Z,68.75
2019-06-10T09:57:17.038Z,68.40
2019-06-10T09:58:17.065Z,67.91
2019-06-10T09:59:17.090Z,67.36
2019-06-10T10:00:17.118Z,66.88
2019-06-10T10:01:17.140Z,66.40
2019-06-10T10:02:17.164Z,65.92
2019-06-10T10:03:17.192Z,66.11
2019-06-10T10:04:17.219Z,65.72
2019-06-10T10:05:17.243Z,65.05
2019-06-10T10:06:17.271Z,65.24
2019-06-10T10:07:17.291Z,65.53
2019-06-10T10:08:17.319Z,64.66
2019-06-10T10:09:17.346Z,64.66
2019-06-10T10:10:17.398Z,64.08
2019-06-10T10:11:17.420Z,62.50
2019-06-10T10:12:17.420Z,62.98
2019-06-10T10:13:17.454Z,63.08
2019-06-10T10:14:17.475Z,63.76
2019-06-10T10:15:27.442Z,64.05
2019-06-10T10:16:17.526Z,63.66
2019-06-10T10:17:17.550Z,64.82
2019-06-10T10:18:17.576Z,64.63
2019-06-10T10:19:17.602Z,65.01
2019-06-10T10:20:17.626Z,65.78
2019-06-10T10:21:17.653Z,65.20
2019-06-10T10:22:17.678Z,65.40
2019-06-10T10:23:17.704Z,65.40
2019-06-10T10:24:17.737Z,65.72
2019-06-10T10:25:17.763Z,64.08
2019-06-10T10:26:17.782Z,63.24
2019-06-10T10:27:17.810Z,62.47
2019-06-10T10:28:17.838Z,62.37
2019-06-10T10:29:17.861Z,62.37
2019-06-10T10:30:17.883Z,62.30
2019-06-10T10:31:17.909Z,61.92
2019-06-10T10:32:17.934Z,61.98
2019-06-10T10:33:17.979Z,63.34
2019-06-10T10:34:17.986Z,63.89
2019-06-10T10:35:18.009Z,63.92
2019-06-10T10:36:18.037Z,63.79
2019-06-10T10:37:18.064Z,64.11
2019-06-10T10:38:18.088Z,63.73
2019-06-10T10:39:21.377Z,63.73
2019-06-10T10:40:18.140Z,63.82
2019-06-10T10:41:18.166Z,63.27
2019-06-10T10:42:18.189Z,63.66
2019-06-10T10:43:29.004Z,62.79
2019-06-10T10:44:18.241Z,63.63
2019-06-10T10:45:18.269Z,63.43
2019-06-10T10:46:18.293Z,63.82
2019-06-10T10:47:18.330Z,64.21
2019-06-10T10:48:18.348Z,64.34
2019-06-10T10:49:18.372Z,64.24
2019-06-10T10:50:18.397Z,64.24
2019-06-10T10:51:18.423Z,64.24
2019-06-10T10:52:18.450Z,64.14
2019-06-10T10:53:18.474Z,64.53
2019-06-10T10:54:29.817Z,64.04
2019-06-10T10:55:18.526Z,64.34
2019-06-10T10:56:18.555Z,63.59
2019-06-10T10:57:18.580Z,63.08
2019-06-10T10:58:18.604Z,63.37
2019-06-10T10:59:18.630Z,63.31
2019-06-10T11:00:18.657Z,62.82
2019-06-10T11:01:18.691Z,62.85
2019-06-10T11:02:18.709Z,62.46
2019-06-10T11:03:18.734Z,61.88
2019-06-10T11:04:18.761Z,62.04
2019-06-10T11:05:18.793Z,62.04
2019-06-10T11:06:18.821Z,62.14
2019-06-10T11:07:18.841Z,62.21
2019-06-10T11:08:18.872Z,62.43
2019-06-10T11:09:18.910Z,62.34
2019-06-10T11:10:18.917Z,61.56
2019-06-10T11:11:18.949Z,61.66
2019-06-10T11:12:18.974Z,61.66
2019-06-10T11:13:19.000Z,61.46
2019-06-10T11:14:19.029Z,61.63
2019-06-10T11:15:19.050Z,62.04
2019-06-10T11:16:19.076Z,61.66
2019-06-10T11:17:19.104Z,60.59
2019-06-10T11:18:19.137Z,60.40
2019-06-10T11:19:19.155Z,59.91
2019-06-10T11:20:19.185Z,60.37
2019-06-10T11:21:19.208Z,60.82
2019-06-10T11:22:19.242Z,61.18
2019-06-10T11:23:19.263Z,61.98
2019-06-10T11:24:35.616Z,62.18
2019-06-10T11:25:19.316Z,61.72
2019-06-10T11:26:19.342Z,60.47
2019-06-10T11:27:19.366Z,60.27
2019-06-10T11:28:19.391Z,59.69
2019-06-10T11:29:19.426Z,59.21
2019-06-10T11:30:19.444Z,59.01
2019-06-10T11:31:19.473Z,59.23
2019-06-10T11:32:19.495Z,59.21
2019-06-10T11:33:19.530Z,60.27
2019-06-10T11:34:19.950Z,61.60
2019-06-10T11:35:19.574Z,61.89
2019-06-10T11:36:19.604Z,62.18
2019-06-10T11:37:19.627Z,62.27
2019-06-10T11:38:19.679Z,61.33
2019-06-10T11:39:19.680Z,61.15
2019-06-10T11:40:19.706Z,61.33
2019-06-10T11:41:19.731Z,61.33
2019-06-10T11:42:19.758Z,61.33
2019-06-10T11:43:22.453Z,60.85
2019-06-10T11:44:19.812Z,60.30
2019-06-10T11:45:22.059Z,60.11
2019-06-10T11:46:19.862Z,60.59
2019-06-10T11:47:19.887Z,60.21
2019-06-10T11:48:19.921Z,61.43
2019-06-10T11:49:19.941Z,62.01
2019-06-10T11:50:19.965Z,62.11
2019-06-10T11:51:19.991Z,61.63
2019-06-10T11:52:20.021Z,62.01
2019-06-10T11:53:22.700Z,62.30
2019-06-10T11:54:20.076Z,62.27
2019-06-10T11:55:21.406Z,62.50
2019-06-10T11:56:22.245Z,62.50
2019-06-10T11:57:20.148Z,62.21
2019-06-10T11:58:22.338Z,62.30
2019-06-10T11:59:20.200Z,62.24
2019-06-10T12:00:20.227Z,61.66
2019-06-10T12:01:22.656Z,61.95
2019-06-10T12:02:22.437Z,62.40
2019-06-10T12:03:22.862Z,62.40
2019-06-10T12:04:20.329Z,63.27
2019-06-10T12:05:23.313Z,63.08
2019-06-10T12:06:22.667Z,63.56
2019-06-10T12:07:22.368Z,63.18
2019-06-10T12:08:23.420Z,63.37
2019-06-10T12:09:22.876Z,63.37
2019-06-10T12:10:20.484Z,62.98
2019-06-10T12:11:23.070Z,62.88
2019-06-10T12:12:22.050Z,62.21
2019-06-10T12:13:22.627Z,62.59
2019-06-10T12:14:24.462Z,63.08
2019-06-10T12:15:22.772Z,62.88
2019-06-10T12:17:12.305Z,63.08
2019-06-10T12:17:34.664Z,62.98
2019-06-10T12:18:22.918Z,63.14
2019-06-10T12:19:21.324Z,63.24
2019-06-10T12:20:22.820Z,63.82
2019-06-10T12:21:22.982Z,64.24
2019-06-10T12:22:22.719Z,63.85
2019-06-10T12:23:22.148Z,64.14
2019-06-10T12:24:23.057Z,64.53
2019-06-10T12:25:32.601Z,64.89
2019-06-10T12:26:23.267Z,65.30
2019-06-10T12:27:20.924Z,65.01
2019-06-10T12:28:21.093Z,64.37
2019-06-10T12:29:22.560Z,64.47
2019-06-10T12:30:22.392Z,63.89
2019-06-10T12:31:23.169Z,63.43
2019-06-10T12:32:22.526Z,63.14
2019-06-10T12:33:24.745Z,62.56
2019-06-10T12:34:22.667Z,63.04
2019-06-10T12:35:23.032Z,62.49
2019-06-10T12:36:23.579Z,62.30
2019-06-10T12:37:23.865Z,62.07
2019-06-10T12:38:22.766Z,61.79
2019-06-10T12:39:22.855Z,61.14
2019-06-10T12:40:21.262Z,61.62
2019-06-10T12:41:23.185Z,60.58
2019-06-10T12:42:22.398Z,60.55
2019-06-10T12:43:23.167Z,60.39
2019-06-10T12:44:22.779Z,60.00
2019-06-10T12:45:23.366Z,59.06
2019-06-10T12:46:23.188Z,58.39
2019-06-10T12:47:22.842Z,57.70
2019-06-10T12:48:22.262Z,57.54
2019-06-10T12:49:21.512Z,57.44
2019-06-10T12:50:21.536Z,57.64
2019-06-10T12:51:22.684Z,57.34
2019-06-10T12:52:22.931Z,57.34